Карточка аэропорта URSS

Внимание!
Информация на этой странице в стадии наполнения.
Если вы не увидели какой-то информации, или заметили неточность - пожалуйста сообщите нам!
Спасибо!
Команда RU-STAFF
Название аэропортаСочи
Название аэропорта (англ.)Sochi
Превышение89 ft. (27.1 m.)
Координаты43°26.634', 39°56.55'
Высота перехода13000 ft
Эшелон переходаQNH>=977hPa: FL150; QNH<977hPa: FL160
Коды ответчика1060-1077
Зона ОрВДРостов-на-Дону РПИ (URRV)
Данные METARURSS 121430Z 29006MPS 9999 FEW040 29/22 Q1007 WS ALL RWY R02/010070 R06/010070 NOSIG RMK R06/30006G09MPS MT OBSC QFE754
Проноз погоды (TAF)URSS 121355Z 1215/1315 29006G11MPS 9999 SCT016 SCT040CB TEMPO 1215/1217 VRB07G12MPS -TSRA BECMG 1217/1218 05003G08MPS BKN016 BECMG 1300/1302 04006MPS FEW016 SCT100 BECMG 1306/1307 25004G09MPS FEW030 SCT100 BECMG 1308/1309 28006G11MPS FEW030CB TEMPO 1309/1315 -TSRA
NOTAMshow/hide NOTAM
AWOS   TABLE

Информация о ВПП

ВПП Длина ВПП (м.) Покрытие Курс ВПП Частота ILS
022500Цементобетон22110.5
062890Цементобетон58111.1
202500Цементобетон202 
242890Цементобетон238 

Диспетчерские позиции

Позывной Наименование органа УВД Частота
URSS_TWRСочи-Старт121.200
URSS_R_APPСочи-Круг119.700
URSS_GNDСочи-Руление119.000
URSS_DELСочи-Деливери132.700
URSS_APPСочи-Подход124.600
URSSFM1119.000



Спутниковое изображение